createdAt,value
2022-08-17T00:02:09.828Z,2.20
2022-08-17T00:04:51.226Z,2.50
2022-08-17T00:07:17.872Z,2.50
2022-08-17T00:09:44.489Z,2.50
2022-08-17T00:12:41.652Z,2.72
2022-08-17T00:14:57.893Z,2.63
2022-08-17T00:17:24.523Z,2.47
2022-08-17T00:19:51.110Z,2.40
2022-08-17T00:22:31.087Z,2.60
2022-08-17T00:25:02.961Z,2.38
2022-08-17T00:27:29.572Z,2.20
2022-08-17T00:29:56.294Z,2.47
2022-08-17T00:33:14.005Z,2.57
2022-08-17T00:35:13.198Z,2.50
2022-08-17T00:37:40.376Z,2.63
2022-08-17T00:40:09.969Z,2.70
2022-08-17T00:42:37.490Z,2.40
2022-08-17T00:45:06.591Z,2.50
2022-08-17T00:47:33.688Z,2.75
2022-08-17T00:50:00.569Z,2.63
2022-08-17T00:52:35.470Z,2.45
2022-08-17T00:55:03.201Z,3.05
2022-08-17T00:57:35.042Z,2.53
2022-08-17T01:00:15.974Z,2.85
2022-08-17T01:02:45.337Z,2.70
2022-08-17T01:05:19.008Z,2.47
2022-08-17T01:07:47.999Z,2.58
2022-08-17T01:10:58.269Z,2.30
2022-08-17T01:13:04.067Z,2.45
2022-08-17T01:15:35.036Z,2.58
2022-08-17T01:18:02.468Z,2.30
2022-08-17T01:20:29.586Z,2.60
2022-08-17T01:22:56.212Z,2.30
2022-08-17T01:25:23.158Z,2.90
2022-08-17T01:27:50.056Z,2.65
2022-08-17T01:30:56.850Z,2.53
2022-08-17T01:33:04.693Z,2.60
2022-08-17T01:35:31.885Z,2.47
2022-08-17T01:37:58.539Z,2.55
2022-08-17T01:40:43.404Z,2.67
2022-08-17T01:43:37.201Z,2.53
2022-08-17T01:46:04.341Z,2.65
2022-08-17T01:48:33.483Z,2.63
2022-08-17T01:51:00.730Z,2.40
2022-08-17T01:53:39.845Z,2.47
2022-08-17T01:56:10.771Z,2.65
2022-08-17T01:58:38.460Z,2.70
2022-08-17T02:01:06.659Z,2.30
2022-08-17T02:03:35.637Z,2.45
2022-08-17T02:06:03.360Z,2.40
2022-08-17T02:08:38.665Z,2.70
2022-08-17T02:11:13.779Z,2.80
2022-08-17T02:13:40.520Z,2.60
2022-08-17T02:16:07.503Z,2.70
2022-08-17T02:18:34.186Z,2.67
2022-08-17T02:21:00.946Z,2.40
2022-08-17T02:23:30.691Z,2.85
2022-08-17T02:26:00.204Z,2.73
2022-08-17T02:28:28.528Z,2.72
2022-08-17T02:31:00.992Z,2.88
2022-08-17T02:33:41.776Z,2.80
2022-08-17T02:36:11.942Z,2.72
2022-08-17T02:38:39.854Z,2.70
2022-08-17T02:41:06.765Z,2.58
2022-08-17T02:43:33.444Z,2.25
2022-08-17T02:46:00.191Z,2.45
2022-08-17T02:48:30.700Z,2.67
2022-08-17T02:51:00.136Z,2.93
2022-08-17T02:53:27.477Z,2.85
2022-08-17T02:56:00.312Z,2.50
2022-08-17T02:58:34.635Z,2.83
2022-08-17T03:01:07.220Z,2.90
2022-08-17T03:03:35.163Z,2.73
2022-08-17T03:06:02.193Z,3.20
2022-08-17T03:08:29.001Z,2.47
2022-08-17T03:10:56.056Z,2.55
2022-08-17T03:13:22.855Z,2.85
2022-08-17T03:15:49.499Z,2.83
2022-08-17T03:18:25.335Z,2.22
2022-08-17T03:20:54.867Z,2.92
2022-08-17T03:23:23.679Z,2.45
2022-08-17T03:25:52.974Z,2.70
2022-08-17T03:28:20.476Z,2.77
2022-08-17T03:30:47.260Z,2.60
2022-08-17T03:33:14.196Z,2.47
2022-08-17T03:35:41.792Z,3.20
2022-08-17T03:38:12.765Z,3.40
2022-08-17T03:40:57.565Z,3.03
2022-08-17T03:43:30.489Z,2.97
2022-08-17T03:46:28.980Z,2.90
2022-08-17T03:49:25.216Z,3.22
2022-08-17T03:52:11.024Z,2.80
2022-08-17T03:54:56.243Z,2.90
2022-08-17T03:57:22.871Z,2.70
2022-08-17T03:59:49.618Z,2.90
2022-08-17T04:02:21.381Z,3.13
2022-08-17T04:04:51.336Z,2.97
2022-08-17T04:07:19.920Z,2.43
2022-08-17T04:09:46.508Z,3.03
2022-08-17T04:12:16.195Z,2.75
2022-08-17T04:14:53.070Z,3.08
2022-08-17T04:17:26.293Z,2.67
2022-08-17T04:19:53.559Z,2.70
2022-08-17T04:22:32.401Z,2.47
2022-08-17T04:25:18.073Z,2.85
2022-08-17T04:27:44.717Z,2.80
2022-08-17T04:30:12.793Z,2.70
2022-08-17T04:33:10.963Z,2.67
2022-08-17T04:35:44.198Z,2.58
2022-08-17T04:38:14.016Z,2.60
2022-08-17T04:40:59.561Z,2.65
2022-08-17T04:43:31.048Z,3.13
2022-08-17T04:46:00.625Z,3.10
2022-08-17T04:48:36.499Z,2.40
2022-08-17T04:51:07.214Z,3.38
2022-08-17T04:53:33.833Z,2.60
2022-08-17T04:56:00.462Z,2.50
2022-08-17T04:58:27.108Z,2.77
2022-08-17T05:00:53.830Z,2.83
2022-08-17T05:03:20.520Z,3.03
2022-08-17T05:05:50.118Z,3.17
2022-08-17T05:08:18.998Z,2.95
2022-08-17T05:10:46.941Z,2.60
2022-08-17T05:13:20.374Z,2.80
2022-08-17T05:15:49.303Z,2.70
2022-08-17T05:18:17.470Z,3.20
2022-08-17T05:20:44.135Z,2.70
2022-08-17T05:23:13.587Z,3.10
2022-08-17T05:25:47.694Z,3.08
2022-08-17T05:28:16.238Z,2.75
2022-08-17T05:30:44.641Z,3.08
2022-08-17T05:33:17.434Z,3.08
2022-08-17T05:35:47.651Z,3.10
2022-08-17T05:38:15.590Z,3.08
2022-08-17T05:40:43.706Z,3.08
2022-08-17T05:43:16.513Z,3.20
2022-08-17T05:45:59.994Z,2.88
2022-08-17T05:48:35.458Z,3.30
2022-08-17T05:51:20.546Z,2.95
2022-08-17T05:54:17.022Z,3.03
2022-08-17T05:56:43.614Z,2.90
2022-08-17T05:59:29.485Z,3.15
2022-08-17T06:01:56.024Z,2.53
2022-08-17T06:04:31.497Z,2.97
2022-08-17T06:07:07.212Z,3.17
2022-08-17T06:09:44.640Z,3.00
2022-08-17T06:12:30.117Z,3.20
2022-08-17T06:15:19.480Z,2.97
2022-08-17T06:17:46.674Z,2.88
2022-08-17T06:20:15.937Z,3.17
2022-08-17T06:22:49.711Z,2.50
2022-08-17T06:25:22.622Z,2.80
2022-08-17T06:27:54.236Z,3.20
2022-08-17T06:30:27.195Z,2.88
2022-08-17T06:33:00.374Z,3.15
2022-08-17T06:36:03.085Z,2.97
2022-08-17T06:38:53.256Z,3.25
2022-08-17T06:41:42.938Z,3.00
2022-08-17T06:44:43.583Z,2.70
2022-08-17T06:47:34.471Z,2.75
2022-08-17T06:50:12.067Z,2.72
2022-08-17T06:53:09.296Z,2.85
2022-08-17T06:55:45.656Z,2.87
2022-08-17T06:58:16.326Z,2.83
2022-08-17T07:00:47.652Z,2.90
2022-08-17T07:03:28.222Z,2.50
2022-08-17T07:06:02.849Z,2.83
2022-08-17T07:08:38.329Z,2.60
2022-08-17T07:11:46.430Z,2.70
2022-08-17T07:14:53.278Z,3.20
2022-08-17T07:17:22.469Z,3.30
2022-08-17T07:20:16.144Z,2.70
2022-08-17T07:22:59.871Z,2.57
2022-08-17T07:25:28.612Z,2.88
2022-08-17T07:27:59.724Z,2.70
2022-08-17T07:30:28.115Z,2.90
2022-08-17T07:32:59.470Z,2.85
2022-08-17T07:35:37.629Z,2.93
2022-08-17T07:38:30.637Z,3.30
2022-08-17T07:40:57.917Z,2.55
2022-08-17T07:43:47.224Z,2.78
2022-08-17T07:46:45.817Z,3.08
2022-08-17T07:49:14.905Z,2.80
2022-08-17T07:51:45.557Z,2.80
2022-08-17T07:54:15.163Z,2.53
2022-08-17T07:56:47.711Z,2.67
2022-08-17T07:59:23.889Z,2.85
2022-08-17T08:01:57.980Z,2.50
2022-08-17T08:05:01.345Z,2.67
2022-08-17T08:07:39.492Z,3.03
2022-08-17T08:10:11.052Z,2.70
2022-08-17T08:12:41.489Z,2.67
2022-08-17T08:15:22.249Z,2.53
2022-08-17T08:17:54.095Z,2.65
2022-08-17T08:20:52.080Z,3.00
2022-08-17T08:23:22.796Z,2.90
2022-08-17T08:26:18.454Z,2.60
2022-08-17T08:29:19.668Z,2.40
2022-08-17T08:32:08.034Z,2.67
2022-08-17T08:34:54.748Z,2.78
2022-08-17T08:37:35.776Z,2.97
2022-08-17T08:40:20.492Z,2.60
2022-08-17T08:43:28.559Z,2.67
2022-08-17T08:46:02.776Z,3.22
2022-08-17T08:48:58.007Z,2.88
2022-08-17T08:51:55.355Z,2.53
2022-08-17T08:54:48.493Z,3.10
2022-08-17T08:57:47.116Z,2.63
2022-08-17T09:00:17.715Z,3.10
2022-08-17T09:03:07.370Z,3.00
2022-08-17T09:05:37.053Z,2.65
2022-08-17T09:08:23.359Z,3.20
2022-08-17T09:11:22.537Z,2.70
2022-08-17T09:14:17.222Z,2.70
2022-08-17T09:17:03.736Z,3.00
2022-08-17T09:19:43.462Z,2.80
2022-08-17T09:22:26.204Z,2.63
2022-08-17T09:24:57.228Z,2.40
2022-08-17T09:27:32.072Z,2.47
2022-08-17T09:30:04.398Z,2.60
2022-08-17T09:32:43.953Z,2.33
2022-08-17T09:35:17.568Z,2.63
2022-08-17T09:38:22.607Z,2.77
2022-08-17T09:40:52.215Z,2.53
2022-08-17T09:43:52.247Z,3.00
2022-08-17T09:46:28.494Z,2.53
2022-08-17T09:49:25.467Z,2.80
2022-08-17T09:51:57.404Z,2.50
2022-08-17T09:54:44.838Z,2.83
2022-08-17T09:57:37.165Z,2.70
2022-08-17T10:00:13.235Z,2.58
2022-08-17T10:02:57.939Z,3.00
2022-08-17T10:05:45.424Z,2.70
2022-08-17T10:08:46.927Z,2.53
2022-08-17T10:12:01.022Z,2.72
2022-08-17T10:14:43.819Z,2.60
2022-08-17T10:17:25.326Z,2.72
2022-08-17T10:20:10.562Z,2.30
2022-08-17T10:23:06.210Z,2.63
2022-08-17T10:25:56.790Z,3.10
2022-08-17T10:28:30.388Z,2.58
2022-08-17T10:31:30.797Z,2.47
2022-08-17T10:34:05.329Z,2.50
2022-08-17T10:37:06.153Z,2.50
2022-08-17T10:40:09.180Z,2.55
2022-08-17T10:43:00.695Z,2.75
2022-08-17T10:46:30.863Z,2.33
2022-08-17T10:49:24.066Z,2.30
2022-08-17T10:51:54.490Z,2.72
2022-08-17T10:55:02.225Z,2.25
2022-08-17T10:57:49.505Z,2.42
2022-08-17T11:00:18.945Z,2.20
2022-08-17T11:02:54.076Z,2.53
2022-08-17T11:05:43.759Z,2.47
2022-08-17T11:08:33.571Z,2.30
2022-08-17T11:11:37.570Z,2.03
2022-08-17T11:14:08.656Z,2.65
2022-08-17T11:17:20.927Z,1.93
2022-08-17T11:20:13.002Z,2.20
2022-08-17T11:22:50.110Z,2.05
2022-08-17T11:25:20.223Z,2.08
2022-08-17T11:27:53.828Z,2.45
2022-08-17T11:30:51.107Z,2.30
2022-08-17T11:33:29.859Z,2.42
2022-08-17T11:36:18.306Z,2.50
2022-08-17T11:39:09.734Z,2.42
2022-08-17T11:41:48.794Z,2.63
2022-08-17T11:44:37.601Z,2.30
2022-08-17T11:48:23.779Z,2.63
2022-08-17T11:51:31.150Z,2.70
2022-08-17T11:54:34.613Z,2.55
2022-08-17T11:57:27.332Z,2.20
2022-08-17T12:00:00.456Z,2.40
2022-08-17T12:02:29.790Z,2.38
2022-08-17T12:05:10.340Z,2.03
2022-08-17T12:08:12.504Z,2.13
2022-08-17T12:10:58.111Z,2.10
2022-08-17T12:13:30.491Z,2.40
2022-08-17T12:16:05.697Z,2.38
2022-08-17T12:18:37.385Z,2.20
2022-08-17T12:21:06.563Z,2.38
2022-08-17T12:23:47.302Z,2.08
2022-08-17T12:26:30.217Z,1.83
2022-08-17T12:29:02.697Z,2.10
2022-08-17T12:31:44.269Z,1.75
2022-08-17T12:34:41.957Z,1.92
2022-08-17T12:37:29.674Z,1.88
2022-08-17T12:40:01.051Z,1.80
2022-08-17T12:42:37.475Z,1.73
2022-08-17T12:45:07.513Z,2.08
2022-08-17T12:47:37.224Z,1.70
2022-08-17T12:50:08.179Z,2.10
2022-08-17T12:52:58.518Z,1.93
2022-08-17T12:55:33.762Z,1.77
2022-08-17T12:58:02.201Z,2.10
2022-08-17T13:00:37.988Z,1.98
2022-08-17T13:03:09.486Z,1.90
2022-08-17T13:05:54.238Z,1.70
2022-08-17T13:08:36.094Z,1.83
2022-08-17T13:11:09.936Z,2.08
2022-08-17T13:13:40.589Z,1.77
2022-08-17T13:16:14.354Z,1.90
2022-08-17T13:18:46.346Z,1.90
2022-08-17T13:21:18.955Z,1.83
2022-08-17T13:24:05.688Z,2.10
2022-08-17T13:27:07.887Z,2.13
2022-08-17T13:29:39.297Z,1.73
2022-08-17T13:32:13.013Z,2.17
2022-08-17T13:35:12.415Z,1.50
2022-08-17T13:37:41.058Z,1.70
2022-08-17T13:40:09.370Z,1.70
2022-08-17T13:42:52.381Z,2.10
2022-08-17T13:45:36.022Z,1.93
2022-08-17T13:48:11.856Z,2.17
2022-08-17T13:50:59.590Z,2.50
2022-08-17T13:53:47.581Z,2.10
2022-08-17T13:56:39.044Z,1.92
2022-08-17T13:59:16.007Z,1.60
2022-08-17T14:01:51.074Z,1.80
2022-08-17T14:04:22.805Z,1.73
2022-08-17T14:07:12.975Z,1.55
2022-08-17T14:09:50.330Z,1.67
2022-08-17T14:12:21.701Z,1.60
2022-08-17T14:14:49.550Z,2.00
2022-08-17T14:17:16.403Z,1.85
2022-08-17T14:19:43.131Z,1.70
2022-08-17T14:22:18.354Z,1.83
2022-08-17T14:24:45.852Z,1.97
2022-08-17T14:27:12.482Z,1.77
2022-08-17T14:29:41.080Z,2.10
2022-08-17T14:32:20.933Z,1.90
2022-08-17T14:34:49.607Z,1.83
2022-08-17T14:37:20.954Z,2.13
2022-08-17T14:39:47.717Z,1.70
2022-08-17T14:42:15.509Z,2.00
2022-08-17T14:44:42.111Z,1.75
2022-08-17T14:47:14.936Z,2.03
2022-08-17T14:49:42.205Z,1.97
2022-08-17T14:52:12.290Z,2.20
2022-08-17T14:54:43.752Z,1.90
2022-08-17T14:57:25.720Z,1.50
2022-08-17T14:59:59.713Z,1.65
2022-08-17T15:02:31.060Z,2.17
2022-08-17T15:05:06.040Z,1.77
2022-08-17T15:07:32.730Z,1.90
2022-08-17T15:10:01.506Z,1.70
2022-08-17T15:12:33.225Z,2.20
2022-08-17T15:15:04.700Z,2.07
2022-08-17T15:17:45.080Z,1.77
2022-08-17T15:20:33.301Z,2.00
2022-08-17T15:22:59.967Z,1.85
2022-08-17T15:25:29.227Z,1.67
2022-08-17T15:27:56.104Z,1.70
2022-08-17T15:30:23.681Z,1.70
2022-08-17T15:32:55.115Z,1.92
2022-08-17T15:35:27.858Z,2.10
2022-08-17T15:37:57.195Z,2.20
2022-08-17T15:40:25.167Z,1.87
2022-08-17T15:42:52.021Z,1.95
2022-08-17T15:45:24.632Z,2.13
2022-08-17T15:47:52.547Z,2.08
2022-08-17T15:50:19.674Z,1.90
2022-08-17T15:52:47.508Z,2.13
2022-08-17T15:55:15.359Z,1.73
2022-08-17T15:57:42.210Z,1.80
2022-08-17T16:00:09.784Z,1.80
2022-08-17T16:03:32.004Z,1.70
2022-08-17T16:05:25.173Z,1.90
2022-08-17T16:07:52.614Z,1.60
2022-08-17T16:10:19.727Z,1.60
2022-08-17T16:12:48.085Z,1.77
2022-08-17T16:15:16.223Z,1.80
2022-08-17T16:17:42.945Z,1.67
2022-08-17T16:20:20.097Z,1.38
2022-08-17T16:22:48.409Z,1.60
2022-08-17T16:25:53.026Z,1.73
2022-08-17T16:28:12.686Z,1.70
2022-08-17T16:30:39.590Z,1.43
2022-08-17T16:33:06.214Z,1.48
2022-08-17T16:35:33.805Z,1.60
2022-08-17T16:38:00.504Z,1.55
2022-08-17T16:40:29.492Z,1.83
2022-08-17T16:42:57.999Z,1.70
2022-08-17T16:45:36.891Z,1.48
2022-08-17T16:48:04.477Z,1.83
2022-08-17T16:50:32.186Z,2.05
2022-08-17T16:53:10.945Z,1.50
2022-08-17T16:55:38.577Z,1.57
2022-08-17T16:58:06.693Z,1.40
2022-08-17T17:00:33.756Z,1.70
2022-08-17T17:03:18.922Z,1.60
2022-08-17T17:06:06.462Z,2.20
2022-08-17T17:09:11.320Z,1.47
2022-08-17T17:11:48.084Z,1.63
2022-08-17T17:14:20.478Z,1.70
2022-08-17T17:17:22.682Z,1.42
2022-08-17T17:20:00.658Z,1.70
2022-08-17T17:22:36.136Z,1.70
2022-08-17T17:25:02.744Z,1.58
2022-08-17T17:27:42.531Z,1.55
2022-08-17T17:30:09.094Z,1.52
2022-08-17T17:33:19.182Z,1.88
2022-08-17T17:35:56.904Z,1.60
2022-08-17T17:38:40.744Z,1.40
2022-08-17T17:41:25.969Z,1.42
2022-08-17T17:44:02.925Z,1.70
2022-08-17T17:46:38.254Z,1.50
2022-08-17T17:49:06.114Z,1.17
2022-08-17T17:52:08.730Z,1.25
2022-08-17T17:55:17.653Z,1.30
2022-08-17T17:58:21.273Z,1.42
2022-08-17T18:01:06.406Z,1.20
2022-08-17T18:04:08.289Z,1.57
2022-08-17T18:07:17.905Z,1.13
2022-08-17T18:10:29.836Z,1.50
2022-08-17T18:13:21.411Z,1.33
2022-08-17T18:15:54.004Z,1.45
2022-08-17T18:18:37.699Z,1.40
2022-08-17T18:21:15.814Z,1.40
2022-08-17T18:24:00.304Z,1.30
2022-08-17T18:26:32.947Z,1.20
2022-08-17T18:29:01.193Z,1.52
2022-08-17T18:31:27.949Z,1.57
2022-08-17T18:34:45.424Z,1.98
2022-08-17T18:37:09.513Z,1.38
2022-08-17T18:39:39.858Z,1.50
2022-08-17T18:42:25.813Z,1.50
2022-08-17T18:44:55.320Z,1.40
2022-08-17T18:47:28.873Z,1.40
2022-08-17T18:49:57.981Z,1.70
2022-08-17T18:52:28.495Z,1.40
2022-08-17T18:55:04.302Z,1.42
2022-08-17T18:57:59.730Z,1.50
2022-08-17T19:00:39.649Z,1.60
2022-08-17T19:03:15.294Z,1.63
2022-08-17T19:05:43.382Z,1.45
2022-08-17T19:08:33.183Z,1.83
2022-08-17T19:11:07.268Z,1.50
2022-08-17T19:13:42.916Z,1.77
2022-08-17T19:16:15.681Z,1.42
2022-08-17T19:18:52.534Z,1.58
2022-08-17T19:21:30.432Z,1.65
2022-08-17T19:24:20.031Z,1.23
2022-08-17T19:26:55.972Z,1.50
2022-08-17T19:29:50.052Z,1.45
2022-08-17T19:32:20.541Z,1.60
2022-08-17T19:34:48.077Z,1.85
2022-08-17T19:37:33.362Z,1.43
2022-08-17T19:40:29.299Z,1.80
2022-08-17T19:43:21.539Z,1.50
2022-08-17T19:46:06.024Z,1.65
2022-08-17T19:48:57.450Z,1.50
2022-08-17T19:51:57.478Z,1.33
2022-08-17T19:54:31.394Z,1.60
2022-08-17T19:57:18.389Z,1.50
2022-08-17T19:59:58.039Z,1.70
2022-08-17T20:02:37.766Z,1.50
2022-08-17T20:05:11.641Z,1.60
2022-08-17T20:07:44.316Z,1.80
2022-08-17T20:10:23.589Z,1.98
2022-08-17T20:12:53.185Z,1.65
2022-08-17T20:15:30.696Z,1.60
2022-08-17T20:18:05.137Z,1.63
2022-08-17T20:20:56.376Z,1.70
2022-08-17T20:23:22.912Z,1.50
2022-08-17T20:26:30.341Z,1.50
2022-08-17T20:29:37.705Z,1.83
2022-08-17T20:32:20.920Z,1.63
2022-08-17T20:34:47.919Z,1.70
2022-08-17T20:37:14.549Z,1.85
2022-08-17T20:39:52.686Z,1.60
2022-08-17T20:42:22.093Z,1.58
2022-08-17T20:44:54.483Z,1.80
2022-08-17T20:47:33.997Z,1.95
2022-08-17T20:50:33.031Z,1.63
2022-08-17T20:53:03.277Z,1.42
2022-08-17T20:55:36.378Z,1.58
2022-08-17T20:58:24.558Z,1.80
2022-08-17T21:00:57.641Z,1.90
2022-08-17T21:03:24.407Z,1.50
2022-08-17T21:06:00.382Z,1.83
2022-08-17T21:08:54.569Z,1.85
2022-08-17T21:11:57.185Z,1.60
2022-08-17T21:14:29.694Z,1.55
2022-08-17T21:17:29.856Z,1.83
2022-08-17T21:20:12.069Z,1.63
2022-08-17T21:23:15.834Z,1.67
2022-08-17T21:25:49.118Z,1.70
2022-08-17T21:28:33.797Z,1.90
2022-08-17T21:31:08.538Z,1.80
2022-08-17T21:33:39.942Z,1.70
2022-08-17T21:36:12.626Z,1.80
2022-08-17T21:38:48.817Z,1.90
2022-08-17T21:41:29.727Z,1.60
2022-08-17T21:44:11.770Z,1.80
2022-08-17T21:46:42.932Z,1.80
2022-08-17T21:49:17.808Z,1.77
2022-08-17T21:51:51.762Z,1.70
2022-08-17T21:54:34.657Z,1.70
2022-08-17T21:57:04.446Z,1.92
2022-08-17T21:59:35.714Z,1.70
2022-08-17T22:02:06.122Z,1.88
2022-08-17T22:04:34.733Z,1.80
2022-08-17T22:07:04.945Z,1.67
2022-08-17T22:09:46.014Z,2.10
2022-08-17T22:12:20.785Z,2.20
2022-08-17T22:15:00.274Z,2.15
2022-08-17T22:17:30.002Z,1.73
2022-08-17T22:20:04.696Z,1.95
2022-08-17T22:22:57.948Z,2.47
2022-08-17T22:25:26.731Z,1.77
2022-08-17T22:27:57.075Z,2.17
2022-08-17T22:30:39.781Z,2.00
2022-08-17T22:33:28.011Z,2.33
2022-08-17T22:36:22.116Z,2.00
2022-08-17T22:38:50.161Z,2.25
2022-08-17T22:41:35.024Z,2.30
2022-08-17T22:44:31.962Z,1.70
2022-08-17T22:47:00.497Z,2.10
2022-08-17T22:49:32.567Z,2.15
2022-08-17T22:52:22.247Z,2.15
2022-08-17T22:55:17.865Z,2.30
2022-08-17T22:58:08.311Z,2.33
2022-08-17T23:00:39.304Z,2.20
2022-08-17T23:03:16.214Z,2.00
2022-08-17T23:05:47.319Z,1.90
2022-08-17T23:08:21.044Z,1.90
2022-08-17T23:10:48.603Z,2.50
2022-08-17T23:13:15.367Z,2.35
2022-08-17T23:15:43.030Z,2.13
2022-08-17T23:18:09.681Z,2.10
2022-08-17T23:20:41.763Z,2.17
2022-08-17T23:23:10.196Z,2.10
2022-08-17T23:25:37.441Z,2.40
2022-08-17T23:28:06.557Z,2.30
2022-08-17T23:30:37.003Z,2.28
2022-08-17T23:33:07.477Z,2.25
2022-08-17T23:35:39.721Z,2.30
2022-08-17T23:38:09.163Z,2.00
2022-08-17T23:40:35.844Z,2.50
2022-08-17T23:43:11.455Z,2.60
2022-08-17T23:45:55.216Z,2.20
2022-08-17T23:48:35.244Z,2.50
2022-08-17T23:51:05.834Z,2.55
2022-08-17T23:53:34.865Z,2.42
2022-08-17T23:56:09.696Z,2.20
2022-08-17T23:58:44.915Z,2.58
